Time;durP1;ratioP1;P1;durP2;ratioP2;P2;SDS_P1;SDS_P2;PMS_P1;PMS_P2;Temp;Humidity;BMP_temperature;BMP_pressure;BME280_temperature;BME280_humidity;BME280_pressure;Samples;Min_cycle;Max_cycle;Signal;HPM_P1;HPM_P2
2021/05/30 00:01:30;;;;;;;3.85;3.27;;;;;;;13.67;83.88;99079.48;1612635;88;21098;-72
2021/05/30 00:03:56;;;;;;;14.20;4.05;;;;;;;13.66;84.05;99079.84;1593199;90;21665;-70
2021/05/30 00:06:24;;;;;;;10.82;3.92;;;;;;;13.67;84.18;99083.63;1593605;89;21087;-71
2021/05/30 00:08:54;;;;;;;5.78;3.72;;;;;;;13.68;84.31;99082.46;1625080;87;21672;-70
2021/05/30 00:11:23;;;;;;;7.75;4.10;;;;;;;13.69;84.28;99079.13;1603938;87;21056;-71
2021/05/30 00:13:55;;;;;;;7.25;4.03;;;;;;;13.72;84.40;99083.95;1626438;87;21131;-69
2021/05/30 00:16:23;;;;;;;8.33;4.15;;;;;;;13.74;84.33;99084.41;1641074;87;21160;-72
2021/05/30 00:18:52;;;;;;;6.55;3.25;;;;;;;13.75;84.48;99084.63;1644661;87;21092;-72
2021/05/30 00:21:18;;;;;;;4.03;3.27;;;;;;;13.80;84.37;99085.77;1625337;87;21079;-73
2021/05/30 00:23:45;;;;;;;7.03;3.47;;;;;;;13.78;84.06;99083.13;1644765;86;21080;-70
2021/05/30 00:26:15;;;;;;;11.03;3.62;;;;;;;13.70;84.13;99083.52;1644096;87;21117;-72
2021/05/30 00:28:43;;;;;;;8.65;3.50;;;;;;;13.63;84.31;99078.56;1641184;87;21080;-71
2021/05/30 00:31:12;;;;;;;9.73;3.95;;;;;;;13.58;84.58;99076.85;1642943;87;21056;-71
2021/05/30 00:33:40;;;;;;;9.10;3.92;;;;;;;13.62;84.94;99078.34;1644523;87;21118;-72
2021/05/30 00:36:12;;;;;;;5.58;3.77;;;;;;;13.67;84.95;99075.89;1643927;87;21385;-69
2021/05/30 00:38:38;;;;;;;12.93;4.12;;;;;;;13.71;84.84;99083.17;1643185;86;21203;-74
2021/05/30 00:41:08;;;;;;;10.43;4.33;;;;;;;13.76;84.59;99086.26;1641878;87;21593;-68
2021/05/30 00:43:51;;;;;;;10.70;4.47;;;;;;;13.80;84.28;99091.91;1644824;86;21096;-75
2021/05/30 00:46:20;;;;;;;7.00;4.40;;;;;;;13.81;84.22;99094.31;1644472;87;21064;-72
2021/05/30 00:48:49;;;;;;;4.60;3.45;;;;;;;13.83;84.03;99090.62;1644464;87;21093;-71
2021/05/30 00:51:17;;;;;;;9.20;4.47;;;;;;;13.82;83.93;99090.95;1644480;87;21188;-71
2021/05/30 00:53:48;;;;;;;6.05;4.00;;;;;;;13.80;83.96;99097.44;1642548;87;21615;-69
2021/05/30 00:56:15;;;;;;;11.48;3.62;;;;;;;13.78;84.05;99095.59;1642543;87;21583;-69
2021/05/30 00:58:46;;;;;;;6.53;3.17;;;;;;;13.77;84.02;99098.94;1641016;87;21140;-74
2021/05/30 01:01:12;;;;;;;4.78;2.85;;;;;;;13.77;84.00;99097.55;1639324;87;21680;-73
2021/05/30 01:03:39;;;;;;;7.90;3.30;;;;;;;13.81;83.90;99102.63;1598608;88;21144;-69
2021/05/30 01:06:08;;;;;;;3.75;2.75;;;;;;;13.83;83.76;99101.70;1599925;89;21096;-68
2021/05/30 01:08:36;;;;;;;9.08;3.10;;;;;;;13.82;83.58;99101.45;1644060;86;21640;-71
2021/05/30 01:11:04;;;;;;;9.33;3.35;;;;;;;13.76;83.66;99097.33;1641051;87;21089;-69
2021/05/30 01:13:32;;;;;;;6.25;3.33;;;;;;;13.72;83.87;99093.08;1643895;87;21128;-70
2021/05/30 01:16:00;;;;;;;4.35;3.50;;;;;;;13.67;83.97;99091.12;1643906;87;21640;-68
2021/05/30 01:18:28;;;;;;;6.22;3.12;;;;;;;13.57;83.92;99097.39;1643818;87;21627;-71
2021/05/30 01:20:55;;;;;;;8.00;3.80;;;;;;;13.47;84.39;99088.17;1643634;87;21065;-69
2021/05/30 01:23:22;;;;;;;10.53;3.95;;;;;;;13.45;84.79;99086.32;1643999;87;21396;-73
2021/05/30 01:25:49;;;;;;;5.50;3.95;;;;;;;13.41;84.80;99085.42;1643689;87;21103;-69
2021/05/30 01:28:16;;;;;;;7.10;4.00;;;;;;;13.36;84.93;99087.84;1642812;87;22087;-70
2021/05/30 01:30:46;;;;;;;10.32;3.90;;;;;;;13.31;85.15;99084.74;1641512;87;21095;-71
2021/05/30 01:33:16;;;;;;;10.28;3.95;;;;;;;13.33;85.49;99087.97;1623126;87;21112;-70
2021/05/30 01:35:43;;;;;;;5.50;3.80;;;;;;;13.38;85.46;99091.06;1638312;87;21127;-69
2021/05/30 01:38:11;;;;;;;11.75;3.72;;;;;;;13.43;85.35;99088.63;1643614;87;21108;-70
2021/05/30 01:40:39;;;;;;;9.35;3.60;;;;;;;13.46;85.07;99088.73;1603662;88;21885;-69
2021/05/30 01:43:06;;;;;;;5.53;3.25;;;;;;;13.50;84.85;99088.84;1613744;88;21075;-71
2021/05/30 01:45:34;;;;;;;5.50;3.50;;;;;;;13.53;84.65;99088.77;1616800;88;21131;-71
2021/05/30 01:48:02;;;;;;;5.67;4.08;;;;;;;13.55;84.46;99093.35;1616730;88;21075;-69
2021/05/30 01:50:31;;;;;;;9.10;4.22;;;;;;;13.50;84.34;99101.30;1615311;88;21039;-68
2021/05/30 01:53:03;;;;;;;8.90;4.80;;;;;;;13.31;84.69;99094.99;1615833;88;21148;-72
2021/05/30 01:55:31;;;;;;;6.25;4.28;;;;;;;13.13;85.25;99093.33;1616609;88;21126;-68
2021/05/30 01:57:57;;;;;;;5.30;4.35;;;;;;;13.01;85.85;99089.18;1617018;88;21070;-68
2021/05/30 02:00:24;;;;;;;8.35;4.78;;;;;;;12.96;86.33;99101.86;1613656;88;21111;-73
2021/05/30 02:02:55;;;;;;;8.30;4.50;;;;;;;12.93;86.73;99101.95;1585164;90;21099;-69
2021/05/30 02:05:23;;;;;;;6.65;4.25;;;;;;;12.92;86.95;99100.92;1616963;88;21166;-68
2021/05/30 02:07:51;;;;;;;5.25;3.58;;;;;;;12.90;87.13;99093.80;1617129;88;21124;-71
2021/05/30 02:10:22;;;;;;;8.75;4.08;;;;;;;12.88;87.42;99093.33;1617139;88;21118;-71
2021/05/30 02:12:54;;;;;;;9.35;4.30;;;;;;;12.88;87.66;99082.27;1597110;88;21128;-69
2021/05/30 02:15:22;;;;;;;5.83;4.05;;;;;;;12.87;87.92;99084.81;1616812;88;21071;-69
2021/05/30 02:17:50;;;;;;;6.58;4.10;;;;;;;12.87;88.19;99085.38;1616947;88;21097;-70
2021/05/30 02:20:22;;;;;;;7.50;3.85;;;;;;;12.87;88.50;99090.34;1616820;88;21122;-70
2021/05/30 02:22:52;;;;;;;5.92;3.85;;;;;;;12.88;88.70;99095.30;1598293;88;21111;-68
2021/05/30 02:25:18;;;;;;;6.53;3.55;;;;;;;12.89;88.91;99094.95;1616650;88;21170;-72
2021/05/30 02:27:45;;;;;;;6.78;3.90;;;;;;;12.89;89.09;99099.10;1616690;88;21134;-70
2021/05/30 02:30:12;;;;;;;5.40;3.47;;;;;;;12.95;89.21;99101.04;1616607;88;21143;-71
2021/05/30 02:32:41;;;;;;;9.70;3.83;;;;;;;12.99;89.21;99106.69;1615511;88;21091;-72
2021/05/30 02:35:08;;;;;;;4.92;3.70;;;;;;;13.03;89.19;99109.00;1599063;88;21122;-70
2021/05/30 02:37:37;;;;;;;6.05;3.65;;;;;;;13.07;89.31;99106.36;1617059;88;21086;-70
2021/05/30 02:40:08;;;;;;;4.75;3.80;;;;;;;13.11;89.22;99112.78;1613592;86;21376;-72
2021/05/30 02:42:35;;;;;;;6.90;3.83;;;;;;;13.13;89.19;99114.06;1617278;88;21079;-69
2021/05/30 02:45:05;;;;;;;5.30;3.62;;;;;;;13.17;89.12;99114.75;1616792;88;21662;-73
2021/05/30 02:47:34;;;;;;;4.22;3.83;;;;;;;13.16;89.26;99108.41;1615976;87;21103;-71
2021/05/30 02:50:01;;;;;;;5.20;3.55;;;;;;;13.20;89.18;99114.05;1616926;88;21098;-71
2021/05/30 02:52:27;;;;;;;4.78;4.00;;;;;;;13.22;89.29;99113.13;1617499;88;21139;-73
2021/05/30 02:54:55;;;;;;;7.17;3.98;;;;;;;13.23;89.25;99112.78;1616104;88;21970;-72
2021/05/30 02:57:22;;;;;;;4.65;4.25;;;;;;;13.23;89.29;99112.78;1616660;88;21082;-70
2021/05/30 02:59:54;;;;;;;6.35;4.78;;;;;;;13.22;89.29;99108.38;1611635;88;21094;-68
2021/05/30 03:02:20;;;;;;;6.97;4.70;;;;;;;13.20;89.36;99107.13;1602555;88;21079;-71
2021/05/30 03:04:47;;;;;;;6.55;4.50;;;;;;;13.22;89.51;99115.90;1616873;88;21103;-70
2021/05/30 03:07:14;;;;;;;4.62;4.15;;;;;;;13.22;89.59;99118.66;1616813;88;21782;-71
2021/05/30 03:09:48;;;;;;;6.97;4.40;;;;;;;13.22;89.64;99114.52;1617129;88;21123;-68
2021/05/30 03:12:16;;;;;;;4.50;4.10;;;;;;;13.24;89.66;99117.72;1615301;88;21054;-73
2021/05/30 03:14:48;;;;;;;6.55;4.45;;;;;;;13.25;89.65;99115.20;1617060;88;21151;-72
2021/05/30 03:17:14;;;;;;;7.92;5.22;;;;;;;13.25;89.69;99120.16;1616324;88;21178;-70
2021/05/30 03:19:50;;;;;;;7.37;4.37;;;;;;;13.21;89.73;99119.80;1613518;88;21817;-71
2021/05/30 03:22:16;;;;;;;9.65;5.28;;;;;;;13.19;89.86;99122.91;1617153;88;21094;-71
2021/05/30 03:24:43;;;;;;;8.85;4.83;;;;;;;13.18;90.01;99123.27;1616738;88;21676;-71
2021/05/30 03:27:11;;;;;;;7.90;4.60;;;;;;;13.16;90.18;99118.08;1616227;88;21067;-72
2021/05/30 03:29:37;;;;;;;5.87;4.87;;;;;;;13.19;90.32;99119.34;1617063;88;21035;-71
2021/05/30 03:32:07;;;;;;;5.35;4.78;;;;;;;13.19;90.23;99131.78;1616992;88;21206;-72
2021/05/30 03:34:36;;;;;;;8.95;5.62;;;;;;;13.15;90.34;99123.40;1617030;88;21686;-73
2021/05/30 03:37:05;;;;;;;9.20;5.25;;;;;;;13.15;90.53;99120.03;1616983;88;21071;-74
2021/05/30 03:39:34;;;;;;;11.45;4.87;;;;;;;13.14;90.63;99117.62;1618105;87;21090;-72
2021/05/30 03:42:13;;;;;;;7.33;5.10;;;;;;;13.13;90.61;99125.13;1641648;87;21140;-74
2021/05/30 03:44:41;;;;;;;9.10;4.85;;;;;;;13.10;90.75;99127.18;1644912;87;21450;-70
2021/05/30 03:47:12;;;;;;;8.50;5.37;;;;;;;13.10;90.91;99125.80;1587245;89;21118;-69
2021/05/30 03:49:41;;;;;;;6.55;4.83;;;;;;;13.10;91.05;99126.39;1643830;87;21080;-72
2021/05/30 03:52:10;;;;;;;5.35;4.70;;;;;;;13.10;91.17;99123.03;1642252;87;21052;-69
2021/05/30 03:54:37;;;;;;;7.90;4.12;;;;;;;13.14;91.25;99126.73;1644131;87;21060;-71
2021/05/30 03:57:06;;;;;;;6.33;4.20;;;;;;;13.19;91.22;99127.63;1641313;87;21143;-71
2021/05/30 03:59:32;;;;;;;5.40;4.03;;;;;;;13.20;91.18;99125.93;1644984;87;21116;-74
2021/05/30 04:01:59;;;;;;;5.17;4.25;;;;;;;13.24;91.05;99126.83;1645199;87;21101;-73
2021/05/30 04:04:25;;;;;;;4.10;3.60;;;;;;;13.28;90.96;99129.71;1612974;89;21106;-69
2021/05/30 04:06:51;;;;;;;4.45;3.67;;;;;;;13.31;90.81;99134.55;1613589;88;21651;-73
2021/05/30 04:09:21;;;;;;;10.28;3.85;;;;;;;13.29;90.47;99137.44;1601952;88;21094;-71
2021/05/30 04:11:48;;;;;;;5.90;3.87;;;;;;;13.30;90.69;99134.89;1648153;85;21091;-71
2021/05/30 04:14:14;;;;;;;4.60;3.90;;;;;;;13.29;90.44;99129.92;1646873;87;21620;-76
2021/05/30 04:16:43;;;;;;;4.58;4.15;;;;;;;13.24;90.28;99120.48;1648764;86;21659;-69
2021/05/30 04:19:09;;;;;;;5.33;3.72;;;;;;;13.24;90.32;99118.53;1644308;87;21615;-74
2021/05/30 04:21:35;;;;;;;6.35;3.60;;;;;;;13.24;90.31;99119.09;1642447;87;21124;-68
2021/05/30 04:24:02;;;;;;;5.17;3.50;;;;;;;13.31;90.69;99126.81;1599835;89;22241;-74
2021/05/30 04:26:29;;;;;;;15.20;4.17;;;;;;;13.39;90.68;99128.67;1600479;88;22204;-73
2021/05/30 04:28:55;;;;;;;7.58;3.75;;;;;;;13.50;90.57;99122.05;1611538;88;21673;-73
2021/05/30 04:31:23;;;;;;;7.55;3.85;;;;;;;13.59;90.12;99124.16;1595324;90;21211;-71
2021/05/30 04:33:49;;;;;;;4.75;3.20;;;;;;;13.65;89.47;99117.77;1644883;87;21152;-69
2021/05/30 04:36:20;;;;;;;4.55;3.92;;;;;;;13.71;89.45;99113.62;1613011;89;21103;-75
2021/05/30 04:38:49;;;;;;;8.48;4.85;;;;;;;13.74;88.14;99112.91;1564660;90;21644;-76
2021/05/30 04:41:17;;;;;;;17.82;4.03;;;;;;;13.71;87.96;99108.66;1571027;89;21125;-74
2021/05/30 04:43:45;;;;;;;9.23;3.62;;;;;;;13.71;87.79;99108.66;1571327;91;21101;-70
2021/05/30 04:46:14;;;;;;;5.42;3.55;;;;;;;13.74;87.45;99106.56;1569234;90;21091;-76
2021/05/30 04:48:40;;;;;;;4.95;3.52;;;;;;;13.72;87.35;99113.84;1616983;87;21090;-73
2021/05/30 04:51:12;;;;;;;3.90;3.50;;;;;;;13.78;87.36;99120.51;1613638;88;21079;-75
2021/05/30 04:53:36;;;;;;;7.22;3.60;;;;;;;13.82;86.71;99124.17;1573263;90;21097;-72
2021/05/30 04:56:05;;;;;;;4.03;3.22;;;;;;;13.83;86.62;99122.46;1586062;90;21126;-74
2021/05/30 04:58:34;;;;;;;3.55;3.08;;;;;;;13.82;85.99;99118.63;1616928;87;21290;-71
2021/05/30 05:01:04;;;;;;;4.92;4.00;;;;;;;13.76;85.92;99107.02;1616658;88;21085;-74
2021/05/30 05:03:34;;;;;;;6.05;4.00;;;;;;;13.78;86.46;99108.05;1614029;88;21157;-71
2021/05/30 05:06:05;;;;;;;6.33;3.60;;;;;;;13.85;86.63;99106.28;1586323;90;21566;-71
2021/05/30 05:08:33;;;;;;;9.73;3.90;;;;;;;13.91;85.87;99115.72;1614297;88;21074;-72
2021/05/30 05:11:03;;;;;;;3.72;2.85;;;;;;;13.86;85.97;99112.06;1615908;88;21075;-70
2021/05/30 05:13:31;;;;;;;5.15;3.35;;;;;;;13.94;86.50;99109.47;1614271;88;21118;-77
2021/05/30 05:15:57;;;;;;;11.35;3.65;;;;;;;14.06;86.35;99110.00;1617191;88;21107;-69
2021/05/30 05:18:26;;;;;;;6.50;3.95;;;;;;;14.12;85.87;99109.98;1586419;90;21106;-72
2021/05/30 05:20:54;;;;;;;5.62;3.35;;;;;;;14.14;85.52;99110.44;1585895;90;21107;-72
2021/05/30 05:23:23;;;;;;;7.28;3.42;;;;;;;14.11;85.23;99114.70;1617234;88;21082;-69
2021/05/30 05:25:54;;;;;;;4.50;3.12;;;;;;;14.17;85.43;99118.04;1616170;88;21121;-69
2021/05/30 05:28:25;;;;;;;5.58;3.47;;;;;;;14.17;85.17;99126.34;1564924;90;22498;-75
2021/05/30 05:30:51;;;;;;;10.95;3.83;;;;;;;14.17;85.28;99122.77;1570235;90;21086;-73
2021/05/30 05:33:21;;;;;;;6.55;3.37;;;;;;;14.19;85.20;99125.39;1611504;87;21119;-74
2021/05/30 05:35:51;;;;;;;5.35;3.05;;;;;;;14.17;84.79;99122.20;1613761;88;21090;-71
2021/05/30 05:38:22;;;;;;;9.33;3.00;;;;;;;14.14;84.80;99124.29;1614807;88;21050;-74
2021/05/30 05:40:57;;;;;;;5.37;3.10;;;;;;;14.11;84.78;99123.59;1602927;87;21060;-73
2021/05/30 05:43:23;;;;;;;4.80;2.95;;;;;;;14.12;84.83;99123.84;1611043;86;21096;-75
2021/05/30 05:45:50;;;;;;;4.50;2.92;;;;;;;14.13;84.80;99115.73;1644109;87;21141;-70
2021/05/30 05:48:17;;;;;;;3.83;2.98;;;;;;;14.18;84.51;99119.64;1637560;87;21184;-73
2021/05/30 05:50:48;;;;;;;10.93;3.58;;;;;;;14.20;84.28;99116.51;1631575;87;21120;-74
2021/05/30 05:53:15;;;;;;;7.37;3.25;;;;;;;14.18;84.29;99115.48;1624190;87;21093;-73
2021/05/30 05:55:41;;;;;;;3.80;2.62;;;;;;;14.20;84.19;99102.09;1625302;87;21595;-74
2021/05/30 05:58:07;;;;;;;3.67;2.70;;;;;;;14.28;83.95;99107.23;1626739;87;21129;-76
2021/05/30 06:00:38;;;;;;;4.22;2.75;;;;;;;14.33;83.43;99107.56;1623065;87;21032;-72
2021/05/30 06:03:07;;;;;;;4.72;2.50;;;;;;;14.41;83.62;99107.16;1635282;87;21092;-77
2021/05/30 06:05:34;;;;;;;7.33;2.75;;;;;;;14.56;83.46;99118.84;1612710;89;21078;-74
2021/05/30 06:08:03;;;;;;;4.90;3.10;;;;;;;14.64;82.41;99113.48;1571699;90;21137;-73
2021/05/30 06:10:35;;;;;;;;;;;;;;;14.56;80.32;99120.23;1596230;89;21103;-75
2021/05/30 06:13:09;;;;;;;5.12;2.83;;;;;;;14.46;81.17;99122.14;1579738;89;21095;-77
2021/05/30 06:15:35;;;;;;;7.90;3.65;;;;;;;14.47;81.67;99121.78;1595458;89;21152;-71
2021/05/30 06:18:15;;;;;;;6.92;3.22;;;;;;;14.45;81.45;99123.31;1635070;87;21148;-73
2021/05/30 06:20:41;;;;;;;6.22;3.42;;;;;;;14.49;82.15;99117.27;1642214;87;21103;-72
2021/05/30 06:23:07;;;;;;;6.15;3.22;;;;;;;14.60;82.50;99125.27;1644632;85;21636;-75
2021/05/30 06:25:43;;;;;;;4.42;3.50;;;;;;;14.73;82.11;99123.23;1641012;87;21623;-74
2021/05/30 06:28:09;;;;;;;4.80;2.92;;;;;;;14.80;81.24;99121.24;1644782;87;21544;-73
2021/05/30 06:30:37;;;;;;;6.45;3.47;;;;;;;14.83;80.96;99127.45;1624366;87;21029;-72
2021/05/30 06:33:08;;;;;;;7.80;3.22;;;;;;;14.92;81.06;99127.84;1598945;89;21141;-77
2021/05/30 06:35:39;;;;;;;7.25;3.10;;;;;;;15.05;80.63;99128.54;1597314;89;21054;-78
2021/05/30 06:38:08;;;;;;;4.65;3.20;;;;;;;15.02;79.40;99130.65;1598891;88;21667;-73
2021/05/30 06:40:40;;;;;;;5.70;2.52;;;;;;;15.13;80.10;99130.91;1609897;88;21067;-72
2021/05/30 06:43:09;;;;;;;9.93;3.00;;;;;;;15.36;80.31;99131.61;1649909;86;21135;-73
2021/05/30 06:45:35;;;;;;;5.35;2.52;;;;;;;15.60;77.28;99133.34;1649823;87;21606;-72
2021/05/30 06:48:01;;;;;;;7.20;2.67;;;;;;;15.70;78.20;99132.77;1649796;87;21067;-76
2021/05/30 06:50:30;;;;;;;5.05;2.58;;;;;;;15.92;78.49;99133.20;1649879;87;21595;-73
2021/05/30 06:52:58;;;;;;;11.05;2.90;;;;;;;16.15;76.64;99142.22;1593470;88;21183;-71
2021/05/30 06:55:28;;;;;;;5.20;3.08;;;;;;;16.21;76.06;99151.05;1596631;88;21095;-72
2021/05/30 06:57:55;;;;;;;4.05;2.62;;;;;;;16.33;76.34;99146.48;1602093;88;21648;-76
2021/05/30 07:00:29;;;;;;;4.40;2.95;;;;;;;16.50;75.21;99153.55;1605706;88;21095;-75
2021/05/30 07:02:57;;;;;;;3.42;2.47;;;;;;;16.45;73.23;99158.02;1650989;86;21111;-75
2021/05/30 07:05:29;;;;;;;6.72;2.27;;;;;;;16.20;72.69;99158.37;1650877;86;22178;-69
2021/05/30 07:07:59;;;;;;;3.80;2.55;;;;;;;15.87;71.88;99168.22;1649303;86;21644;-75
2021/05/30 07:10:47;;;;;;;7.42;2.67;;;;;;;15.65;72.70;99176.09;1613095;88;21054;-75
2021/05/30 07:13:15;;;;;;;7.65;2.72;;;;;;;15.59;73.98;99170.61;1653687;85;21062;-74
2021/05/30 07:15:41;;;;;;;4.37;2.20;;;;;;;15.63;74.47;99168.70;1721172;82;21105;-75
2021/05/30 07:18:09;;;;;;;1.98;1.77;;;;;;;15.67;74.32;99168.21;1705413;82;21622;-77
2021/05/30 07:20:42;;;;;;;4.33;2.25;;;;;;;15.81;74.64;99169.08;1729426;82;21083;-77
2021/05/30 07:23:06;;;;;;;5.20;2.15;;;;;;;15.82;72.99;99163.77;1726458;82;21063;-75
2021/05/30 07:25:33;;;;;;;5.53;2.22;;;;;;;15.80;72.64;99161.92;1725987;82;21061;-75
2021/05/30 07:27:59;;;;;;;3.72;2.25;;;;;;;15.75;72.95;99165.56;1732046;81;21090;-75
2021/05/30 07:30:25;;;;;;;4.83;2.10;;;;;;;15.74;73.17;99164.78;1726974;82;21087;-73
2021/05/30 07:32:52;;;;;;;3.83;2.37;;;;;;;15.76;73.03;99163.03;1725326;82;21621;-76
2021/05/30 07:35:18;;;;;;;5.10;2.15;;;;;;;15.78;73.22;99173.98;1710933;82;21101;-77
2021/05/30 07:37:45;;;;;;;3.67;1.77;;;;;;;15.87;73.84;99170.99;1731112;82;21051;-74
2021/05/30 07:40:11;;;;;;;2.67;1.70;;;;;;;16.02;73.84;99172.73;1732813;82;21116;-74
2021/05/30 07:42:38;;;;;;;3.05;2.20;;;;;;;16.19;72.66;99170.06;1728886;82;21073;-75
2021/05/30 07:45:06;;;;;;;2.85;2.12;;;;;;;16.33;73.17;99175.67;1728071;81;21654;-75
2021/05/30 07:47:32;;;;;;;4.33;2.35;;;;;;;16.43;71.79;99176.47;1730066;82;20994;-75
2021/05/30 07:49:59;;;;;;;3.77;2.67;;;;;;;16.41;71.64;99175.45;1727077;82;21050;-76
2021/05/30 07:52:26;;;;;;;4.00;2.35;;;;;;;16.40;71.85;99181.38;1725600;82;21648;-77
2021/05/30 07:54:52;;;;;;;3.22;2.17;;;;;;;16.36;71.51;99177.74;1731135;82;21032;-73
2021/05/30 07:57:19;;;;;;;3.87;2.35;;;;;;;16.33;71.54;99170.11;1724498;82;21148;-73
2021/05/30 07:59:46;;;;;;;5.60;2.20;;;;;;;16.36;71.17;99173.58;1725479;81;21121;-76
2021/05/30 08:02:13;;;;;;;2.33;2.10;;;;;;;16.51;70.50;99170.47;1729385;82;21031;-74
2021/05/30 08:04:39;;;;;;;3.10;1.90;;;;;;;16.62;70.73;99165.08;1724691;82;21078;-74
2021/05/30 08:07:05;;;;;;;6.85;2.00;;;;;;;16.75;69.12;99167.11;1723338;82;21051;-77
2021/05/30 08:09:31;;;;;;;2.92;2.35;;;;;;;16.76;69.60;99172.88;1719014;82;21073;-73
2021/05/30 08:12:00;;;;;;;3.60;2.85;;;;;;;16.67;69.64;99171.73;1731112;81;21018;-75
2021/05/30 08:14:26;;;;;;;10.60;2.10;;;;;;;16.49;69.66;99175.59;1731243;82;21059;-75
2021/05/30 08:16:52;;;;;;;1.87;1.70;;;;;;;16.33;69.98;99174.28;1727880;82;21170;-73
2021/05/30 08:19:19;;;;;;;2.10;1.90;;;;;;;16.24;70.02;99172.54;1722860;82;21043;-77
2021/05/30 08:21:48;;;;;;;5.60;2.08;;;;;;;16.19;69.64;99174.23;1725300;82;21654;-74
2021/05/30 08:24:14;;;;;;;2.65;1.62;;;;;;;16.11;69.61;99173.87;1725917;82;21030;-74
2021/05/30 08:26:41;;;;;;;5.65;2.17;;;;;;;16.13;70.66;99179.88;1719503;82;21573;-74
2021/05/30 08:29:07;;;;;;;6.95;1.40;;;;;;;16.23;70.41;99188.20;1728432;82;21136;-76
2021/05/30 08:31:34;;;;;;;4.92;1.62;;;;;;;16.27;69.72;99177.39;1725622;82;21029;-74
2021/05/30 08:34:00;;;;;;;2.45;1.70;;;;;;;16.36;70.80;99181.91;1719591;82;21557;-75
2021/05/30 08:36:28;;;;;;;5.80;1.87;;;;;;;16.54;70.15;99184.44;1667728;85;21211;-73
2021/05/30 08:38:54;;;;;;;4.33;1.72;;;;;;;16.68;70.36;99176.14;1653573;85;21092;-75
2021/05/30 08:41:21;;;;;;;2.52;1.40;;;;;;;16.82;69.06;99179.73;1688527;84;21519;-75
2021/05/30 08:43:47;;;;;;;3.75;1.80;;;;;;;16.94;69.77;99184.31;1689784;84;21132;-74
2021/05/30 08:46:14;;;;;;;3.87;2.00;;;;;;;16.98;67.00;99183.80;1683939;84;21007;-74
2021/05/30 08:48:41;;;;;;;3.40;1.72;;;;;;;16.83;67.56;99179.97;1670286;85;21070;-73
2021/05/30 08:51:12;;;;;;;6.62;1.87;;;;;;;16.85;67.98;99185.97;1678500;84;22137;-73
2021/05/30 08:53:41;;;;;;;1.80;1.55;;;;;;;16.91;68.41;99186.45;1669165;85;21100;-75
2021/05/30 08:56:08;;;;;;;4.60;1.80;;;;;;;17.00;67.30;99189.80;1675049;84;21646;-74
2021/05/30 08:58:41;;;;;;;4.80;1.98;;;;;;;17.03;68.56;99189.62;1725214;82;21027;-73
2021/05/30 09:01:17;;;;;;;;;;;;;;;17.14;67.80;99193.41;1736807;82;21250;-76
2021/05/30 09:04:05;;;;;;;2.70;1.95;;;;;;;17.23;67.49;99193.16;1717685;81;20290;-74
2021/05/30 09:06:33;;;;;;;2.90;1.75;;;;;;;17.20;67.71;99196.69;1710439;81;21081;-77
2021/05/30 09:09:00;;;;;;;3.70;1.60;;;;;;;17.11;67.49;99203.91;1724645;82;21154;-76
2021/05/30 09:11:44;;;;;;;4.80;2.55;;;;;;;16.98;66.74;99209.41;1718249;82;21539;-76
2021/05/30 09:14:18;;;;;;;2.83;1.77;;;;;;;16.83;67.67;99206.40;1730060;81;21099;-73
2021/05/30 09:17:07;;;;;;;4.20;2.20;;;;;;;16.74;68.74;99212.20;1728589;82;21078;-76
2021/05/30 09:22:40;;;;;;;8.98;2.25;;;;;;;16.61;68.73;99207.41;1685035;84;21633;-76
2021/05/30 09:25:18;;;;;;;4.12;2.02;;;;;;;16.67;69.43;99207.31;1686738;84;21025;-72
2021/05/30 09:27:59;;;;;;;9.33;2.27;;;;;;;16.78;69.64;99206.13;1683470;85;21085;-74
2021/05/30 09:30:34;;;;;;;2.15;1.87;;;;;;;16.94;69.64;99209.95;1667806;85;21057;-75
2021/05/30 09:33:21;;;;;;;4.20;1.60;;;;;;;17.06;68.79;99212.53;1686683;85;21587;-75
2021/05/30 09:36:03;;;;;;;3.02;2.00;;;;;;;17.02;66.97;99213.08;1683069;85;21041;-73
2021/05/30 09:38:38;;;;;;;1.77;1.42;;;;;;;16.79;67.66;99216.64;1674934;84;21078;-69
2021/05/30 09:41:11;;;;;;;3.17;1.65;;;;;;;16.72;68.37;99221.49;1684030;85;21077;-73
2021/05/30 09:43:53;;;;;;;4.67;1.82;;;;;;;16.68;68.06;99224.81;1682918;85;21054;-72
2021/05/30 09:46:22;;;;;;;5.17;1.50;;;;;;;16.62;68.08;99223.48;1686021;85;21611;-69
2021/05/30 09:48:55;;;;;;;5.78;1.90;;;;;;;16.57;68.41;99227.95;1685370;84;21148;-76
2021/05/30 09:51:37;;;;;;;13.20;2.67;;;;;;;16.52;68.31;99224.90;1679841;85;21597;-75
2021/05/30 09:54:11;;;;;;;7.53;2.47;;;;;;;16.45;69.11;99220.00;1679112;85;21057;-69
2021/05/30 09:56:44;;;;;;;3.70;1.82;;;;;;;16.46;69.11;99225.80;1679881;85;21017;-75
2021/05/30 09:59:16;;;;;;;6.15;1.82;;;;;;;16.45;69.03;99224.17;1681636;85;21077;-74
2021/05/30 10:02:00;;;;;;;3.60;2.00;;;;;;;16.41;68.97;99236.61;1681678;85;21097;-71
2021/05/30 10:04:32;;;;;;;2.22;1.72;;;;;;;16.43;69.25;99235.66;1689978;83;21029;-74
2021/05/30 10:07:04;;;;;;;3.08;1.67;;;;;;;16.45;69.36;99246.41;1718115;83;21592;-75
2021/05/30 10:09:32;;;;;;;2.77;2.10;;;;;;;16.44;69.09;99237.87;1707506;83;21018;-72
2021/05/30 10:11:59;;;;;;;3.67;1.77;;;;;;;16.42;68.85;99241.02;1681759;85;21098;-73
2021/05/30 10:14:27;;;;;;;2.27;1.92;;;;;;;16.35;68.81;99241.45;1681268;85;21535;-75
2021/05/30 10:16:53;;;;;;;6.22;2.20;;;;;;;16.26;68.72;99241.08;1681225;85;20982;-75
2021/05/30 10:19:33;;;;;;;2.42;2.10;;;;;;;16.19;69.43;99240.92;1680523;85;21657;-78
2021/05/30 10:22:01;;;;;;;3.85;2.10;;;;;;;16.20;69.27;99246.72;1676514;83;21610;-75
2021/05/30 10:24:29;;;;;;;4.12;2.50;;;;;;;16.12;69.21;99254.69;1668255;85;21594;-76
2021/05/30 10:27:23;;;;;;;3.35;2.17;;;;;;;16.11;69.64;99255.27;1665523;85;21102;-76
2021/05/30 10:30:12;;;;;;;9.15;2.33;;;;;;;16.08;69.62;99256.58;1666796;85;21664;-72
2021/05/30 10:32:44;;;;;;;3.30;2.13;;;;;;;16.00;70.17;99268.91;1682946;84;21065;-73
2021/05/30 10:35:28;;;;;;;4.42;2.08;;;;;;;16.00;70.17;99268.91;1682895;85;21581;-75
2021/05/30 10:37:56;;;;;;;8.08;2.33;;;;;;;15.94;69.96;99267.57;1662824;85;21107;-74
2021/05/30 10:40:27;;;;;;;4.90;2.52;;;;;;;15.82;70.44;99266.53;1656312;86;21089;-73
2021/05/30 10:43:13;;;;;;;5.75;2.60;;;;;;;15.76;70.92;99274.91;1668374;85;21019;-74
2021/05/30 10:45:53;;;;;;;3.85;2.45;;;;;;;15.74;70.43;99266.16;1670133;85;21239;-76
2021/05/30 10:48:19;;;;;;;4.87;2.98;;;;;;;15.66;70.57;99268.55;1669796;85;21074;-72
2021/05/30 10:53:46;;;;;;;5.58;2.25;;;;;;;15.61;71.13;99264.05;1667697;85;21657;-76
2021/05/30 10:56:39;;;;;;;6.72;2.75;;;;;;;15.72;71.75;99267.66;1670719;85;21014;-74
2021/05/30 10:59:15;;;;;;;5.08;2.37;;;;;;;15.87;71.56;99259.07;1658703;85;21588;-77
2021/05/30 11:01:44;;;;;;;5.25;2.52;;;;;;;16.01;71.47;99255.27;1674037;85;21074;-73
2021/05/30 11:04:29;;;;;;;3.58;2.90;;;;;;;16.10;71.12;99258.41;1667830;85;21897;-74
2021/05/30 11:07:07;;;;;;;3.65;2.72;;;;;;;16.15;71.53;99263.11;1673314;84;21079;-75
2021/05/30 11:09:58;;;;;;;4.70;2.75;;;;;;;16.28;71.15;99261.56;1666311;85;21086;-76
2021/05/30 11:12:51;;;;;;;3.20;2.25;;;;;;;16.38;71.23;99267.12;1663582;85;21625;-74
2021/05/30 11:15:23;;;;;;;2.37;2.02;;;;;;;16.47;71.10;99264.94;1665651;85;21087;-75
2021/05/30 11:18:00;;;;;;;5.20;2.62;;;;;;;16.54;70.15;99270.64;1652728;85;21078;-75
2021/05/30 11:20:40;;;;;;;;;;;;;;;16.60;70.57;99278.09;1684879;85;21601;-78
2021/05/30 11:23:14;;;;;;;4.37;2.75;;;;;;;16.69;70.37;99285.39;1694256;83;20209;-72
2021/05/30 11:25:51;;;;;;;3.25;2.40;;;;;;;16.70;69.28;99291.98;1700105;83;21074;-78
2021/05/30 11:28:24;;;;;;;8.35;3.15;;;;;;;16.61;69.63;99298.37;1699787;83;21057;-73
2021/05/30 11:30:59;;;;;;;6.83;3.72;;;;;;;16.61;69.98;99298.37;1698403;83;21141;-75
2021/05/30 11:33:30;;;;;;;4.92;3.85;;;;;;;16.69;69.48;99298.73;1663139;86;21123;-77
2021/05/30 11:36:02;;;;;;;9.83;3.65;;;;;;;16.58;69.30;99310.23;1700229;83;21082;-75
2021/05/30 11:39:13;;;;;;;8.13;2.90;;;;;;;16.50;69.45;99312.04;1698542;82;21164;-77
2021/05/30 11:41:56;;;;;;;4.67;2.33;;;;;;;16.50;69.69;99306.48;1679905;83;21053;-74
2021/05/30 11:44:22;;;;;;;4.95;2.98;;;;;;;16.55;69.84;99314.53;1700373;83;21569;-75
2021/05/30 11:47:00;;;;;;;4.25;2.50;;;;;;;16.56;69.32;99317.55;1699017;83;21110;-75
2021/05/30 11:49:28;;;;;;;6.55;3.15;;;;;;;16.53;68.92;99318.28;1701508;83;21094;-76
2021/05/30 11:52:16;;;;;;;4.87;2.70;;;;;;;16.42;69.04;99322.22;1698613;82;21086;-77
2021/05/30 11:54:49;;;;;;;13.13;2.60;;;;;;;16.38;69.22;99326.89;1700618;83;21077;-74